createdAt,value
2019-05-07T00:00:43.620Z,5.50
2019-05-07T00:01:42.341Z,4.80
2019-05-07T00:02:42.790Z,5.40
2019-05-07T00:03:42.197Z,4.50
2019-05-07T00:04:42.855Z,5.70
2019-05-07T00:05:42.805Z,7.50
2019-05-07T00:06:43.308Z,4.40
2019-05-07T00:07:42.533Z,4.60
2019-05-07T00:08:44.666Z,3.10
2019-05-07T00:09:43.043Z,4.00
2019-05-07T00:10:42.457Z,2.90
2019-05-07T00:11:42.623Z,2.10
2019-05-07T00:12:43.009Z,2.20
2019-05-07T00:13:44.156Z,2.30
2019-05-07T00:14:43.017Z,2.40
2019-05-07T00:15:42.099Z,2.10
2019-05-07T00:16:42.227Z,2.40
2019-05-07T00:17:42.888Z,2.30
2019-05-07T00:18:42.920Z,2.20
2019-05-07T00:19:42.988Z,2.50
2019-05-07T00:20:42.322Z,2.30
2019-05-07T00:21:42.279Z,2.30
2019-05-07T00:22:41.934Z,2.60
2019-05-07T00:23:43.039Z,2.50
2019-05-07T00:24:42.646Z,2.10
2019-05-07T00:25:42.210Z,2.70
2019-05-07T00:26:43.010Z,3.20
2019-05-07T00:27:42.685Z,2.40
2019-05-07T00:28:42.989Z,2.70
2019-05-07T00:29:42.903Z,2.40
2019-05-07T00:30:42.445Z,2.50
2019-05-07T00:31:41.999Z,2.20
2019-05-07T00:32:42.417Z,2.60
2019-05-07T00:33:43.016Z,2.80
2019-05-07T00:34:42.427Z,2.90
2019-05-07T00:35:42.800Z,2.70
2019-05-07T00:36:42.095Z,3.00
2019-05-07T00:37:43.010Z,2.90
2019-05-07T00:38:42.747Z,2.80
2019-05-07T00:39:42.413Z,3.00
2019-05-07T00:40:42.598Z,3.10
2019-05-07T00:41:42.701Z,3.00
2019-05-07T00:42:42.117Z,3.50
2019-05-07T00:43:42.774Z,3.30
2019-05-07T00:44:42.240Z,3.40
2019-05-07T00:45:42.130Z,3.10
2019-05-07T00:46:42.623Z,3.70
2019-05-07T00:47:42.613Z,3.60
2019-05-07T00:48:42.274Z,3.50
2019-05-07T00:49:42.544Z,3.50
2019-05-07T00:50:42.037Z,3.60
2019-05-07T00:51:42.449Z,3.60
2019-05-07T00:52:42.844Z,4.00
2019-05-07T00:53:42.374Z,3.40
2019-05-07T00:54:42.258Z,3.90
2019-05-07T00:55:42.288Z,3.80
2019-05-07T00:56:42.724Z,3.70
2019-05-07T00:57:42.754Z,3.70
2019-05-07T00:58:42.715Z,3.60
2019-05-07T00:59:42.801Z,3.60
2019-05-07T01:00:42.069Z,3.40
2019-05-07T01:01:40.531Z,3.70
2019-05-07T01:02:42.936Z,3.90
2019-05-07T01:03:42.410Z,3.80
2019-05-07T01:04:42.290Z,4.20
2019-05-07T01:05:40.494Z,4.30
2019-05-07T01:06:42.403Z,4.00
2019-05-07T01:07:41.931Z,3.90
2019-05-07T01:08:42.874Z,4.00
2019-05-07T01:09:40.445Z,3.60
2019-05-07T01:10:41.949Z,4.10
2019-05-07T01:11:42.691Z,4.10
2019-05-07T01:12:42.330Z,4.40
2019-05-07T01:13:40.401Z,4.00
2019-05-07T01:14:42.011Z,4.40
2019-05-07T01:15:42.774Z,3.70
2019-05-07T01:16:42.090Z,3.80
2019-05-07T01:17:42.413Z,4.10
2019-05-07T01:18:42.095Z,4.20
2019-05-07T01:19:42.324Z,4.20
2019-05-07T01:20:42.302Z,4.00
2019-05-07T01:21:40.316Z,4.30
2019-05-07T01:22:42.339Z,4.00
2019-05-07T01:23:42.598Z,3.90
2019-05-07T01:24:40.283Z,4.20
2019-05-07T01:25:40.272Z,4.40
2019-05-07T01:26:42.416Z,4.20
2019-05-07T01:27:42.569Z,4.50
2019-05-07T01:28:42.134Z,4.20
2019-05-07T01:29:40.230Z,3.80
2019-05-07T01:30:40.221Z,3.60
2019-05-07T01:31:40.214Z,4.40
2019-05-07T01:32:42.435Z,4.60
2019-05-07T01:33:42.263Z,3.90
2019-05-07T01:34:40.181Z,4.50
2019-05-07T01:35:42.255Z,4.20
2019-05-07T01:36:40.157Z,4.00
2019-05-07T01:37:42.088Z,4.20
2019-05-07T01:38:40.134Z,3.90
2019-05-07T01:39:42.042Z,4.30
2019-05-07T01:40:40.115Z,4.20
2019-05-07T01:41:41.954Z,4.30
2019-05-07T01:42:42.189Z,4.30
2019-05-07T01:43:40.081Z,4.30
2019-05-07T01:44:42.026Z,4.40
2019-05-07T01:45:48.154Z,4.20
2019-05-07T01:46:42.229Z,4.20
2019-05-07T01:47:42.330Z,3.80
2019-05-07T01:48:40.027Z,4.20
2019-05-07T01:49:42.017Z,4.30
2019-05-07T01:50:40.006Z,4.00
2019-05-07T01:51:42.089Z,4.10
2019-05-07T01:52:39.986Z,4.00
2019-05-07T01:53:39.975Z,3.90
2019-05-07T01:54:39.966Z,4.40
2019-05-07T01:55:39.952Z,4.00
2019-05-07T01:56:39.944Z,4.50
2019-05-07T01:57:41.978Z,4.40
2019-05-07T01:58:42.334Z,4.10
2019-05-07T01:59:39.909Z,4.20
2019-05-07T02:00:42.210Z,4.10
2019-05-07T02:01:39.889Z,4.20
2019-05-07T02:02:39.877Z,4.30
2019-05-07T02:03:41.924Z,4.20
2019-05-07T02:04:39.856Z,4.20
2019-05-07T02:05:42.270Z,4.60
2019-05-07T02:06:39.834Z,4.50
2019-05-07T02:07:39.824Z,4.60
2019-05-07T02:08:42.107Z,5.20
2019-05-07T02:09:39.805Z,4.80
2019-05-07T02:10:39.793Z,4.00
2019-05-07T02:11:39.782Z,4.30
2019-05-07T02:12:39.770Z,4.30
2019-05-07T02:13:41.861Z,4.80
2019-05-07T02:14:39.752Z,4.40
2019-05-07T02:15:39.739Z,4.50
2019-05-07T02:16:41.758Z,4.50
2019-05-07T02:17:39.718Z,4.30
2019-05-07T02:18:42.264Z,4.60
2019-05-07T02:19:39.696Z,4.40
2019-05-07T02:20:39.685Z,4.60
2019-05-07T02:21:39.675Z,5.10
2019-05-07T02:22:39.665Z,4.40
2019-05-07T02:23:39.661Z,4.60
2019-05-07T02:24:39.643Z,4.70
2019-05-07T02:25:41.841Z,4.40
2019-05-07T02:26:39.621Z,4.30
2019-05-07T02:27:41.879Z,4.50
2019-05-07T02:28:39.601Z,4.70
2019-05-07T02:29:39.589Z,4.60
2019-05-07T02:30:39.579Z,4.70
2019-05-07T02:31:39.573Z,4.40
2019-05-07T02:32:42.934Z,5.10
2019-05-07T02:33:39.547Z,4.60
2019-05-07T02:34:39.536Z,5.20
2019-05-07T02:35:39.526Z,4.50
2019-05-07T02:36:39.531Z,4.50
2019-05-07T02:37:48.373Z,5.30
2019-05-07T02:38:43.854Z,4.50
2019-05-07T02:39:39.483Z,4.90
2019-05-07T02:40:39.481Z,5.20
2019-05-07T02:41:39.462Z,4.80
2019-05-07T02:42:39.450Z,4.50
2019-05-07T02:43:39.441Z,4.80
2019-05-07T02:44:39.428Z,4.30
2019-05-07T02:45:39.430Z,4.50
2019-05-07T02:46:39.409Z,4.20
2019-05-07T02:47:39.397Z,4.60
2019-05-07T02:48:42.575Z,4.40
2019-05-07T02:49:39.380Z,4.50
2019-05-07T02:50:39.385Z,4.30
2019-05-07T02:51:39.386Z,4.60
2019-05-07T02:52:39.349Z,4.20
2019-05-07T02:53:39.332Z,4.80
2019-05-07T02:54:39.322Z,4.80
2019-05-07T02:55:39.314Z,4.20
2019-05-07T02:56:39.300Z,4.30
2019-05-07T02:57:39.292Z,4.90
2019-05-07T02:58:39.278Z,4.30
2019-05-07T02:59:39.268Z,4.50
2019-05-07T03:00:39.257Z,4.60
2019-05-07T03:01:39.247Z,4.30
2019-05-07T03:02:39.235Z,4.30
2019-05-07T03:03:39.227Z,4.80
2019-05-07T03:04:39.215Z,4.40
2019-05-07T03:05:39.206Z,4.50
2019-05-07T03:06:39.195Z,4.60
2019-05-07T03:07:39.183Z,4.50
2019-05-07T03:08:39.171Z,4.60
2019-05-07T03:09:39.163Z,4.60
2019-05-07T03:10:39.151Z,4.20
2019-05-07T03:11:39.140Z,4.40
2019-05-07T03:12:39.130Z,4.70
2019-05-07T03:13:39.122Z,4.30
2019-05-07T03:14:39.112Z,4.50
2019-05-07T03:15:39.097Z,4.60
2019-05-07T03:16:44.150Z,4.20
2019-05-07T03:17:42.839Z,4.30
2019-05-07T03:18:39.067Z,4.80
2019-05-07T03:19:39.053Z,4.30
2019-05-07T03:20:39.045Z,4.50
2019-05-07T03:21:39.035Z,4.30
2019-05-07T03:22:39.033Z,4.20
2019-05-07T03:23:39.016Z,4.50
2019-05-07T03:24:39.001Z,4.40
2019-05-07T03:25:38.997Z,4.10
2019-05-07T03:26:38.982Z,4.60
2019-05-07T03:27:38.969Z,4.60
2019-05-07T03:28:38.958Z,4.60
2019-05-07T03:29:38.947Z,4.10
2019-05-07T03:30:38.936Z,4.90
2019-05-07T03:31:38.929Z,4.40
2019-05-07T03:32:40.381Z,4.40
2019-05-07T03:33:38.919Z,5.00
2019-05-07T03:34:38.904Z,4.90
2019-05-07T03:35:38.919Z,5.20
2019-05-07T03:36:38.889Z,4.90
2019-05-07T03:37:38.876Z,4.90
2019-05-07T03:38:38.853Z,4.60
2019-05-07T03:39:38.841Z,4.20
2019-05-07T03:40:38.829Z,5.20
2019-05-07T03:41:38.825Z,4.80
2019-05-07T03:42:38.808Z,4.90
2019-05-07T03:43:38.802Z,4.60
2019-05-07T03:44:38.788Z,4.60
2019-05-07T03:45:38.776Z,4.70
2019-05-07T03:46:53.121Z,5.00
2019-05-07T03:47:39.752Z,5.00
2019-05-07T03:48:38.744Z,5.10
2019-05-07T03:49:38.733Z,5.00
2019-05-07T03:50:38.731Z,5.10
2019-05-07T03:51:38.712Z,4.60
2019-05-07T03:52:38.711Z,5.40
2019-05-07T03:53:38.689Z,5.10
2019-05-07T03:54:38.678Z,5.40
2019-05-07T03:55:38.671Z,5.30
2019-05-07T03:56:38.661Z,4.90
2019-05-07T03:57:38.646Z,4.80
2019-05-07T03:58:38.641Z,5.30
2019-05-07T03:59:38.633Z,5.30
2019-05-07T04:00:38.625Z,5.70
2019-05-07T04:01:38.608Z,5.40
2019-05-07T04:02:38.594Z,5.50
2019-05-07T04:03:38.582Z,6.00
2019-05-07T04:04:38.576Z,5.90
2019-05-07T04:05:38.570Z,5.60
2019-05-07T04:06:38.551Z,5.80
2019-05-07T04:07:38.541Z,5.80
2019-05-07T04:08:38.535Z,5.20
2019-05-07T04:09:38.523Z,5.90
2019-05-07T04:10:38.509Z,5.90
2019-05-07T04:11:38.497Z,5.80
2019-05-07T04:12:38.488Z,6.00
2019-05-07T04:13:38.477Z,6.00
2019-05-07T04:14:38.464Z,6.00
2019-05-07T04:15:38.457Z,6.00
2019-05-07T04:16:38.444Z,5.60
2019-05-07T04:17:38.435Z,5.60
2019-05-07T04:18:38.423Z,5.80
2019-05-07T04:19:38.411Z,5.50
2019-05-07T04:20:38.399Z,5.30
2019-05-07T04:21:38.391Z,5.90
2019-05-07T04:22:38.381Z,6.30
2019-05-07T04:23:38.368Z,5.30
2019-05-07T04:24:38.360Z,5.80
2019-05-07T04:25:38.348Z,5.80
2019-05-07T04:26:38.347Z,5.80
2019-05-07T04:27:38.325Z,5.50
2019-05-07T04:28:38.315Z,5.60
2019-05-07T04:29:38.309Z,6.20
2019-05-07T04:30:38.297Z,5.60
2019-05-07T04:31:38.283Z,5.50
2019-05-07T04:32:38.273Z,5.60
2019-05-07T04:33:38.268Z,5.70
2019-05-07T04:34:38.252Z,5.60
2019-05-07T04:35:38.241Z,6.20
2019-05-07T04:36:38.230Z,5.70
2019-05-07T04:37:38.218Z,5.30
2019-05-07T04:38:38.217Z,5.80
2019-05-07T04:39:38.198Z,5.90
2019-05-07T04:40:38.186Z,5.60
2019-05-07T04:41:38.175Z,5.30
2019-05-07T04:42:38.192Z,6.10
2019-05-07T04:43:38.157Z,5.40
2019-05-07T04:44:38.153Z,6.00
2019-05-07T04:45:38.133Z,6.10
2019-05-07T04:46:38.131Z,5.70
2019-05-07T04:47:44.235Z,5.40
2019-05-07T04:48:39.101Z,5.70
2019-05-07T04:49:38.094Z,6.10
2019-05-07T04:50:43.584Z,6.20
2019-05-07T04:51:39.068Z,6.10
2019-05-07T04:52:38.064Z,6.10
2019-05-07T04:53:38.047Z,5.80
2019-05-07T04:54:38.040Z,6.40
2019-05-07T04:55:38.029Z,5.90
2019-05-07T04:56:38.021Z,5.90
2019-05-07T04:57:38.003Z,6.30
2019-05-07T04:58:38.000Z,5.60
2019-05-07T04:59:37.988Z,6.30
2019-05-07T05:00:37.978Z,6.20
2019-05-07T05:01:37.995Z,6.60
2019-05-07T05:02:37.953Z,6.20
2019-05-07T05:03:39.283Z,6.20
2019-05-07T05:04:37.933Z,6.60
2019-05-07T05:05:37.932Z,6.30
2019-05-07T05:06:37.909Z,5.90
2019-05-07T05:07:37.898Z,6.70
2019-05-07T05:08:37.890Z,6.50
2019-05-07T05:09:37.875Z,6.70
2019-05-07T05:10:37.872Z,6.50
2019-05-07T05:11:37.881Z,6.70
2019-05-07T05:12:37.845Z,6.40
2019-05-07T05:13:37.855Z,6.10
2019-05-07T05:14:37.824Z,6.50
2019-05-07T05:15:37.814Z,6.20
2019-05-07T05:16:37.802Z,6.50
2019-05-07T05:17:48.102Z,5.80
2019-05-07T05:18:38.777Z,6.00
2019-05-07T05:19:37.772Z,6.20
2019-05-07T05:20:37.762Z,5.50
2019-05-07T05:21:37.747Z,6.20
2019-05-07T05:22:37.736Z,5.60
2019-05-07T05:23:37.726Z,5.60
2019-05-07T05:24:37.724Z,5.80
2019-05-07T05:25:37.704Z,5.90
2019-05-07T05:26:37.696Z,5.80
2019-05-07T05:27:37.686Z,5.80
2019-05-07T05:28:37.676Z,5.20
2019-05-07T05:29:37.663Z,5.20
2019-05-07T05:30:37.651Z,5.30
2019-05-07T05:31:37.640Z,5.20
2019-05-07T05:32:37.629Z,5.50
2019-05-07T05:33:37.619Z,5.30
2019-05-07T05:34:37.611Z,5.70
2019-05-07T05:35:37.597Z,5.20
2019-05-07T05:36:37.585Z,5.30
2019-05-07T05:37:37.577Z,4.90
2019-05-07T05:38:37.566Z,5.30
2019-05-07T05:39:37.555Z,4.70
2019-05-07T05:40:37.542Z,5.20
2019-05-07T05:41:37.998Z,5.10
2019-05-07T05:42:37.524Z,5.10
2019-05-07T05:43:37.510Z,5.00
2019-05-07T05:44:37.502Z,4.50
2019-05-07T05:45:37.490Z,4.40
2019-05-07T05:46:37.485Z,4.40
2019-05-07T05:47:37.476Z,4.10
2019-05-07T05:48:37.456Z,4.80
2019-05-07T05:49:37.444Z,4.50
2019-05-07T05:50:37.435Z,4.60
2019-05-07T05:51:37.425Z,4.60
2019-05-07T05:52:37.424Z,4.80
2019-05-07T05:53:37.402Z,4.30
2019-05-07T05:54:37.395Z,4.30
2019-05-07T05:55:37.381Z,4.10
2019-05-07T05:56:37.369Z,4.30
2019-05-07T05:57:37.360Z,4.00
2019-05-07T05:58:37.353Z,4.10
2019-05-07T05:59:49.122Z,4.20
2019-05-07T06:00:38.326Z,4.20
2019-05-07T06:01:37.319Z,3.70
2019-05-07T06:02:37.312Z,3.70
2019-05-07T06:03:37.295Z,3.90
2019-05-07T06:04:37.283Z,3.30
2019-05-07T06:05:37.280Z,3.50
2019-05-07T06:06:37.293Z,3.40
2019-05-07T06:07:37.251Z,3.30
2019-05-07T06:08:37.241Z,3.40
2019-05-07T06:09:37.229Z,3.40
2019-05-07T06:10:37.218Z,3.30
2019-05-07T06:11:37.208Z,3.40
2019-05-07T06:12:37.198Z,3.50
2019-05-07T06:13:37.189Z,2.50
2019-05-07T06:14:37.180Z,3.00
2019-05-07T06:15:37.173Z,2.80
2019-05-07T06:16:37.154Z,3.20
2019-05-07T06:17:37.145Z,3.30
2019-05-07T06:18:37.133Z,2.80
2019-05-07T06:19:37.121Z,2.80
2019-05-07T06:20:37.113Z,3.00
2019-05-07T06:21:37.105Z,3.20
2019-05-07T06:22:37.108Z,2.80
2019-05-07T06:23:37.088Z,2.90
2019-05-07T06:24:37.069Z,2.70
2019-05-07T06:25:37.073Z,2.40
2019-05-07T06:26:37.046Z,2.40
2019-05-07T06:27:37.036Z,2.90
2019-05-07T06:28:37.026Z,2.20
2019-05-07T06:29:37.018Z,2.50
2019-05-07T06:30:37.006Z,2.50
2019-05-07T06:31:36.993Z,2.40
2019-05-07T06:32:37.126Z,2.50
2019-05-07T06:33:36.972Z,2.60
2019-05-07T06:34:36.963Z,3.10
2019-05-07T06:35:36.952Z,2.80
2019-05-07T06:36:36.943Z,2.70
2019-05-07T06:37:36.930Z,2.50
2019-05-07T06:38:36.923Z,2.50
2019-05-07T06:39:36.909Z,2.50
2019-05-07T06:40:36.898Z,2.60
2019-05-07T06:41:36.897Z,2.00
2019-05-07T06:42:36.878Z,2.20
2019-05-07T06:43:36.865Z,1.80
2019-05-07T06:44:36.854Z,2.20
2019-05-07T06:45:36.859Z,2.10
2019-05-07T06:46:38.723Z,2.00
2019-05-07T06:47:36.821Z,1.90
2019-05-07T06:48:42.498Z,1.70
2019-05-07T06:49:37.800Z,2.10
2019-05-07T06:50:36.787Z,2.00
2019-05-07T06:51:36.778Z,1.70
2019-05-07T06:52:36.769Z,2.10
2019-05-07T06:53:36.758Z,1.90
2019-05-07T06:54:36.747Z,2.10
2019-05-07T06:55:36.734Z,2.00
2019-05-07T06:56:36.723Z,1.70
2019-05-07T06:57:36.715Z,2.00
2019-05-07T06:58:36.701Z,1.70
2019-05-07T06:59:36.696Z,1.70
2019-05-07T07:00:36.681Z,1.90
2019-05-07T07:01:36.670Z,1.80
2019-05-07T07:02:36.660Z,1.50
2019-05-07T07:03:36.648Z,1.50
2019-05-07T07:04:36.639Z,1.40
2019-05-07T07:05:36.629Z,1.20
2019-05-07T07:06:36.617Z,1.50
2019-05-07T07:07:37.558Z,1.50
2019-05-07T07:08:36.596Z,1.50
2019-05-07T07:09:36.588Z,1.60
2019-05-07T07:10:36.575Z,1.50
2019-05-07T07:11:36.590Z,1.60
2019-05-07T07:12:36.551Z,1.40
2019-05-07T07:13:36.541Z,1.40
2019-05-07T07:14:36.529Z,1.30
2019-05-07T07:15:36.519Z,1.50
2019-05-07T07:16:36.511Z,1.30
2019-05-07T07:17:36.497Z,1.50
2019-05-07T07:18:48.358Z,1.70
2019-05-07T07:19:37.474Z,1.40
2019-05-07T07:20:36.473Z,1.50
2019-05-07T07:21:36.454Z,1.30
2019-05-07T07:22:36.442Z,1.90
2019-05-07T07:23:36.431Z,2.20
2019-05-07T07:24:36.423Z,2.10
2019-05-07T07:25:36.416Z,1.70
2019-05-07T07:26:36.400Z,1.30
2019-05-07T07:27:36.389Z,1.30
2019-05-07T07:28:36.381Z,1.30
2019-05-07T07:29:36.368Z,1.90
2019-05-07T07:30:36.357Z,1.30
2019-05-07T07:31:36.355Z,1.40
2019-05-07T07:32:36.336Z,1.30
2019-05-07T07:33:36.326Z,1.10
2019-05-07T07:34:36.317Z,1.20
2019-05-07T07:35:36.304Z,0.80
2019-05-07T07:36:36.293Z,0.80
2019-05-07T07:37:36.283Z,1.00
2019-05-07T07:38:36.271Z,0.90
2019-05-07T07:39:36.268Z,0.90
2019-05-07T07:40:36.255Z,1.30
2019-05-07T07:41:36.240Z,1.10
2019-05-07T07:42:36.229Z,1.30
2019-05-07T07:43:36.219Z,1.10
2019-05-07T07:44:36.211Z,1.40
2019-05-07T07:45:36.197Z,1.30
2019-05-07T07:46:36.186Z,1.40
2019-05-07T07:47:36.176Z,1.80
2019-05-07T07:48:36.165Z,1.40
2019-05-07T07:49:36.152Z,1.40
2019-05-07T07:50:36.144Z,1.20
2019-05-07T07:51:41.596Z,1.10
2019-05-07T07:52:37.123Z,1.50
2019-05-07T07:53:36.113Z,1.60
2019-05-07T07:54:36.103Z,1.60
2019-05-07T07:55:36.087Z,1.50
2019-05-07T07:56:49.157Z,1.50
2019-05-07T07:57:37.066Z,1.60
2019-05-07T07:58:36.056Z,1.30
2019-05-07T07:59:36.045Z,1.30
2019-05-07T08:00:36.035Z,1.30
2019-05-07T08:01:36.023Z,1.30
2019-05-07T08:02:36.015Z,1.10
2019-05-07T08:03:36.004Z,1.00
2019-05-07T08:04:35.995Z,1.30
2019-05-07T08:05:35.981Z,1.00
2019-05-07T08:06:35.970Z,0.80
2019-05-07T08:07:35.962Z,0.90
2019-05-07T08:08:35.949Z,1.00
2019-05-07T08:09:35.939Z,1.20
2019-05-07T08:10:35.929Z,0.90
2019-05-07T08:11:35.916Z,0.90
2019-05-07T08:12:35.906Z,1.20
2019-05-07T08:13:35.894Z,1.00
2019-05-07T08:14:35.884Z,1.00
2019-05-07T08:15:35.872Z,0.90
2019-05-07T08:16:35.866Z,1.00
2019-05-07T08:17:35.852Z,1.10
2019-05-07T08:18:35.870Z,0.90
2019-05-07T08:19:35.834Z,0.90
2019-05-07T08:20:35.819Z,1.10
2019-05-07T08:21:35.811Z,0.90
2019-05-07T08:22:35.801Z,1.00
2019-05-07T08:23:35.788Z,0.80
2019-05-07T08:24:35.779Z,0.90
2019-05-07T08:25:35.766Z,0.80
2019-05-07T08:26:35.755Z,0.80
2019-05-07T08:27:35.743Z,0.80
2019-05-07T08:28:35.733Z,1.20
2019-05-07T08:29:35.723Z,1.00
2019-05-07T08:30:35.715Z,0.90
2019-05-07T08:31:35.703Z,1.00
2019-05-07T08:32:35.691Z,1.20
2019-05-07T08:33:35.680Z,0.80
2019-05-07T08:34:35.670Z,1.10
2019-05-07T08:35:35.661Z,0.70
2019-05-07T08:36:35.647Z,0.90
2019-05-07T08:37:35.636Z,0.90
2019-05-07T08:38:35.626Z,1.00
2019-05-07T08:39:35.615Z,0.80
2019-05-07T08:40:35.609Z,0.80
2019-05-07T08:41:35.597Z,0.90
2019-05-07T08:42:35.582Z,1.00
2019-05-07T08:43:35.572Z,0.80
2019-05-07T08:44:35.563Z,1.00
2019-05-07T08:45:35.684Z,0.70
2019-05-07T08:46:35.547Z,0.80
2019-05-07T08:47:35.530Z,0.90
2019-05-07T08:48:35.525Z,1.00
2019-05-07T08:49:39.699Z,1.00
2019-05-07T08:50:35.496Z,1.00
2019-05-07T08:51:35.487Z,1.00
2019-05-07T08:52:35.479Z,1.00
2019-05-07T08:53:35.464Z,1.10
2019-05-07T08:54:35.454Z,0.60
2019-05-07T08:55:35.444Z,0.80
2019-05-07T08:56:35.435Z,0.70
2019-05-07T08:57:35.421Z,0.70
2019-05-07T08:58:35.410Z,0.70
2019-05-07T08:59:35.401Z,0.50
2019-05-07T09:00:35.392Z,0.60
2019-05-07T09:01:35.381Z,0.70
2019-05-07T09:02:35.368Z,0.70
2019-05-07T09:03:35.358Z,0.70
2019-05-07T09:04:35.350Z,0.60
2019-05-07T09:05:35.339Z,0.70
2019-05-07T09:06:35.329Z,0.60
2019-05-07T09:07:35.317Z,0.70
2019-05-07T09:08:35.306Z,0.80
2019-05-07T09:09:35.297Z,0.80
2019-05-07T09:10:35.288Z,1.00
2019-05-07T09:11:35.292Z,1.00
2019-05-07T09:12:35.267Z,0.90
2019-05-07T09:13:35.255Z,0.80
2019-05-07T09:14:35.244Z,0.80
2019-05-07T09:15:35.234Z,0.90
2019-05-07T09:16:35.232Z,0.90
2019-05-07T09:17:35.217Z,0.60
2019-05-07T09:18:35.209Z,0.90
2019-05-07T09:19:47.240Z,0.90
2019-05-07T09:20:36.181Z,0.80
2019-05-07T09:21:35.176Z,0.60
2019-05-07T09:22:35.163Z,0.70
2019-05-07T09:23:35.151Z,0.60
2019-05-07T09:24:35.141Z,0.70
2019-05-07T09:25:35.129Z,0.60
2019-05-07T09:26:35.118Z,0.60
2019-05-07T09:27:35.107Z,0.70
2019-05-07T09:28:35.097Z,0.50
2019-05-07T09:29:35.092Z,0.60
2019-05-07T09:30:35.076Z,0.70
2019-05-07T09:31:35.068Z,0.70
2019-05-07T09:32:35.056Z,1.00
2019-05-07T09:33:35.048Z,0.80
2019-05-07T09:34:35.035Z,0.70
2019-05-07T09:35:35.023Z,0.60
2019-05-07T09:36:35.011Z,0.50
2019-05-07T09:37:35.016Z,0.70
2019-05-07T09:38:34.990Z,0.60
2019-05-07T09:39:34.982Z,0.60
2019-05-07T09:40:34.974Z,0.80
2019-05-07T09:41:34.959Z,0.60
2019-05-07T09:42:34.948Z,0.60
2019-05-07T09:43:34.938Z,0.60
2019-05-07T09:44:34.927Z,0.70
2019-05-07T09:45:34.919Z,0.60
2019-05-07T09:46:34.919Z,0.70
2019-05-07T09:47:34.897Z,0.70
2019-05-07T09:48:34.887Z,0.80
2019-05-07T09:49:34.880Z,0.70
2019-05-07T09:50:34.881Z,0.50
2019-05-07T09:51:34.856Z,0.90
2019-05-07T09:52:34.849Z,0.70
2019-05-07T09:53:34.834Z,0.70
2019-05-07T09:54:34.841Z,0.60
2019-05-07T09:55:34.815Z,0.70
2019-05-07T09:56:34.804Z,0.70
2019-05-07T09:57:34.952Z,0.70
2019-05-07T09:58:38.895Z,0.70
2019-05-07T09:59:34.772Z,0.70
2019-05-07T10:00:34.764Z,0.70
2019-05-07T10:01:34.752Z,0.70
2019-05-07T10:02:34.742Z,0.60
2019-05-07T10:03:34.742Z,0.70
2019-05-07T10:04:34.720Z,0.70
2019-05-07T10:05:34.709Z,0.60
2019-05-07T10:06:34.700Z,0.70
2019-05-07T10:07:34.689Z,0.90
2019-05-07T10:08:34.677Z,0.60
2019-05-07T10:09:34.667Z,0.70
2019-05-07T10:10:34.664Z,0.50
2019-05-07T10:11:34.649Z,0.60
2019-05-07T10:12:34.635Z,0.50
2019-05-07T10:13:34.623Z,0.60
2019-05-07T10:14:34.613Z,0.60
2019-05-07T10:15:34.603Z,0.70
2019-05-07T10:16:34.591Z,0.70
2019-05-07T10:17:34.582Z,0.50
2019-05-07T10:18:34.571Z,0.70
2019-05-07T10:19:34.560Z,0.40
2019-05-07T10:20:34.563Z,0.70
2019-05-07T10:21:34.540Z,0.80
2019-05-07T10:22:34.527Z,0.60
2019-05-07T10:23:34.516Z,0.70
2019-05-07T10:24:34.510Z,0.50
2019-05-07T10:25:34.496Z,0.60
2019-05-07T10:26:34.483Z,0.70
2019-05-07T10:27:34.477Z,0.80
2019-05-07T10:28:34.465Z,0.60
2019-05-07T10:29:34.452Z,0.60
2019-05-07T10:30:34.445Z,0.50
2019-05-07T10:31:34.431Z,0.50
2019-05-07T10:32:34.421Z,0.80
2019-05-07T10:33:34.411Z,0.70
2019-05-07T10:34:34.399Z,0.70
2019-05-07T10:35:34.387Z,0.90
2019-05-07T10:36:34.377Z,0.60
2019-05-07T10:37:34.367Z,0.60
2019-05-07T10:38:34.356Z,0.40
2019-05-07T10:39:34.346Z,0.70
2019-05-07T10:40:34.335Z,0.60
2019-05-07T10:41:34.327Z,0.50
2019-05-07T10:42:34.314Z,0.70
2019-05-07T10:43:34.304Z,0.60
2019-05-07T10:44:34.294Z,0.60
2019-05-07T10:45:34.285Z,0.60
2019-05-07T10:46:34.273Z,0.80
2019-05-07T10:47:34.262Z,0.90
2019-05-07T10:48:34.257Z,0.80
2019-05-07T10:49:34.243Z,0.80
2019-05-07T10:50:38.855Z,0.50
2019-05-07T10:51:34.223Z,0.60
2019-05-07T10:52:34.213Z,0.60
2019-05-07T10:53:34.203Z,0.40
2019-05-07T10:54:34.193Z,0.70
2019-05-07T10:55:34.182Z,0.70
2019-05-07T10:56:34.171Z,0.50
2019-05-07T10:57:34.163Z,0.50
2019-05-07T10:58:34.150Z,0.60
2019-05-07T10:59:34.153Z,0.50
2019-05-07T11:00:34.131Z,0.80
2019-05-07T11:01:34.121Z,0.50
2019-05-07T11:02:34.111Z,0.50
2019-05-07T11:03:34.103Z,0.70
2019-05-07T11:04:42.065Z,0.50
2019-05-07T11:05:35.079Z,0.70
2019-05-07T11:06:34.071Z,0.60
2019-05-07T11:07:34.061Z,0.80
2019-05-07T11:08:34.050Z,0.70
2019-05-07T11:09:34.041Z,0.70
2019-05-07T11:10:34.038Z,0.60
2019-05-07T11:11:34.031Z,0.70
2019-05-07T11:12:34.021Z,0.60
2019-05-07T11:13:34.001Z,0.60
2019-05-07T11:14:33.990Z,0.60
2019-05-07T11:15:33.978Z,0.60
2019-05-07T11:16:33.967Z,0.70
2019-05-07T11:17:33.959Z,0.60
2019-05-07T11:18:33.967Z,0.60
2019-05-07T11:19:33.960Z,0.60
2019-05-07T11:20:46.548Z,0.50
2019-05-07T11:21:34.916Z,0.60
2019-05-07T11:22:33.904Z,0.60
2019-05-07T11:23:33.893Z,0.90
2019-05-07T11:24:33.883Z,1.60
2019-05-07T11:25:33.871Z,1.70
2019-05-07T11:26:33.860Z,2.10
2019-05-07T11:27:33.850Z,2.50
2019-05-07T11:28:33.840Z,0.70
2019-05-07T11:29:36.468Z,0.60
2019-05-07T11:30:33.817Z,0.50
2019-05-07T11:31:33.805Z,0.70
2019-05-07T11:32:33.799Z,0.50
2019-05-07T11:33:33.784Z,0.50
2019-05-07T11:34:33.774Z,0.40
2019-05-07T11:35:33.767Z,1.00
2019-05-07T11:36:34.427Z,0.90
2019-05-07T11:37:33.743Z,1.10
2019-05-07T11:38:33.730Z,0.90
2019-05-07T11:39:33.719Z,0.80
2019-05-07T11:40:34.901Z,0.70
2019-05-07T11:41:33.699Z,0.70
2019-05-07T11:42:33.688Z,0.80
2019-05-07T11:43:33.684Z,0.90
2019-05-07T11:44:33.666Z,0.60
2019-05-07T11:45:33.656Z,0.60
2019-05-07T11:46:33.645Z,0.50
2019-05-07T11:47:33.634Z,0.60
2019-05-07T11:48:36.358Z,0.50
2019-05-07T11:49:33.613Z,0.60
2019-05-07T11:50:33.602Z,0.50
2019-05-07T11:51:33.658Z,0.60
2019-05-07T11:52:35.742Z,0.50
2019-05-07T11:53:33.575Z,0.50
2019-05-07T11:54:33.560Z,0.50
2019-05-07T11:55:33.549Z,0.70
2019-05-07T11:56:33.540Z,0.60
2019-05-07T11:57:33.529Z,1.10
2019-05-07T11:58:33.517Z,1.30
2019-05-07T11:59:33.507Z,1.10
2019-05-07T12:00:33.499Z,0.60
2019-05-07T12:01:43.965Z,0.70
2019-05-07T12:02:34.475Z,0.70
2019-05-07T12:03:33.468Z,0.60
2019-05-07T12:04:33.455Z,0.60
2019-05-07T12:05:33.445Z,0.60
2019-05-07T12:06:33.434Z,0.70
2019-05-07T12:07:33.426Z,0.90
2019-05-07T12:08:42.934Z,0.70
2019-05-07T12:09:34.421Z,1.10
2019-05-07T12:10:33.391Z,1.00
2019-05-07T12:11:33.379Z,0.70
2019-05-07T12:12:33.368Z,0.60
2019-05-07T12:13:33.356Z,0.50
2019-05-07T12:14:34.975Z,2.00
2019-05-07T12:15:33.335Z,1.60
2019-05-07T12:16:33.326Z,2.50
2019-05-07T12:17:33.315Z,1.00
2019-05-07T12:18:33.304Z,0.60
2019-05-07T12:19:33.293Z,0.70
2019-05-07T12:20:33.283Z,1.30
2019-05-07T12:21:33.272Z,0.50
2019-05-07T12:22:33.262Z,0.80
2019-05-07T12:23:33.402Z,0.70
2019-05-07T12:24:33.239Z,0.60
2019-05-07T12:25:33.229Z,0.90
2019-05-07T12:26:33.218Z,0.60
2019-05-07T12:27:33.207Z,0.70
2019-05-07T12:28:33.203Z,0.70
2019-05-07T12:29:33.199Z,0.60
2019-05-07T12:30:33.183Z,0.50
2019-05-07T12:31:33.634Z,0.70
2019-05-07T12:32:33.160Z,0.50
2019-05-07T12:33:33.202Z,0.60
2019-05-07T12:34:33.130Z,0.50
2019-05-07T12:35:33.120Z,0.60
2019-05-07T12:36:33.112Z,0.60
2019-05-07T12:37:33.100Z,0.50
2019-05-07T12:38:33.158Z,0.60
2019-05-07T12:39:33.081Z,0.70
2019-05-07T12:40:33.070Z,0.80
2019-05-07T12:41:34.247Z,0.70
2019-05-07T12:42:33.048Z,0.70
2019-05-07T12:43:33.035Z,0.60
2019-05-07T12:44:33.024Z,0.50
2019-05-07T12:45:33.018Z,0.50
2019-05-07T12:46:33.526Z,0.70
2019-05-07T12:47:32.992Z,0.60
2019-05-07T12:48:32.985Z,0.70
2019-05-07T12:49:32.974Z,0.70
2019-05-07T12:50:32.961Z,0.60
2019-05-07T12:51:37.219Z,0.60
2019-05-07T12:52:32.946Z,0.60
2019-05-07T12:53:32.930Z,0.70
2019-05-07T12:54:36.230Z,0.80
2019-05-07T12:55:32.907Z,0.60
2019-05-07T12:56:32.897Z,0.50
2019-05-07T12:57:32.887Z,0.70
2019-05-07T12:58:32.874Z,0.70
2019-05-07T12:59:32.872Z,0.50
2019-05-07T13:00:32.853Z,0.60
2019-05-07T13:01:32.976Z,0.40
2019-05-07T13:02:40.542Z,0.60
2019-05-07T13:03:33.821Z,0.70
2019-05-07T13:04:32.814Z,0.60
2019-05-07T13:05:32.799Z,0.80
2019-05-07T13:06:32.788Z,0.80
2019-05-07T13:07:32.780Z,0.80
2019-05-07T13:08:33.067Z,0.70
2019-05-07T13:09:32.757Z,0.60
2019-05-07T13:10:32.747Z,0.80
2019-05-07T13:11:32.735Z,0.50
2019-05-07T13:12:32.725Z,0.70
2019-05-07T13:13:32.715Z,0.60
2019-05-07T13:14:32.704Z,0.80
2019-05-07T13:15:32.764Z,0.60
2019-05-07T13:16:32.683Z,0.50
2019-05-07T13:17:33.796Z,0.90
2019-05-07T13:18:32.664Z,0.70